Time;durP1;ratioP1;P1;durP2;ratioP2;P2;SDS_P1;SDS_P2;PMS_P1;PMS_P2;Temp;Humidity;BMP_temperature;BMP_pressure;BME280_temperature;BME280_humidity;BME280_pressure;Samples;Min_cycle;Max_cycle;Signal;HPM_P1;HPM_P2
2023/01/18 00:04:57;;;;;;;25.70;17.00;;;;;;;8.38;81.76;99337.95;105802;1282;612712;-69
2023/01/18 00:07:24;;;;;;;25.40;15.90;;;;;;;8.75;80.97;99344.89;107150;1266;153136;-69
2023/01/18 00:09:51;;;;;;;25.10;16.30;;;;;;;8.75;80.72;99344.95;107666;1266;59763;-69
2023/01/18 00:12:19;;;;;;;23.60;15.30;;;;;;;8.75;80.55;99344.89;107362;1265;72240;-69
2023/01/18 00:14:46;;;;;;;29.30;16.40;;;;;;;8.76;80.32;99344.04;107380;1266;73112;-68
2023/01/18 00:17:13;;;;;;;26.10;16.80;;;;;;;8.74;80.15;99343.95;107307;1267;72852;-69
2023/01/18 00:19:40;;;;;;;24.80;16.50;;;;;;;8.77;80.06;99346.48;107277;1267;60592;-69
2023/01/18 00:22:07;;;;;;;25.20;16.00;;;;;;;8.76;80.05;99343.52;107285;1266;62329;-69
2023/01/18 00:24:34;;;;;;;26.90;16.30;;;;;;;8.77;80.12;99338.50;107377;1265;74900;-69
2023/01/18 00:27:01;;;;;;;28.10;16.60;;;;;;;8.74;80.27;99336.06;107355;1266;75298;-68
2023/01/18 00:29:29;;;;;;;22.20;15.10;;;;;;;8.79;80.14;99338.38;107299;1266;72489;-68
2023/01/18 00:31:56;;;;;;;26.00;16.50;;;;;;;8.81;79.93;99335.27;107397;1266;63364;-70
2023/01/18 00:34:27;;;;;;;25.20;15.80;;;;;;;8.82;79.89;99333.36;107366;1266;62597;-69
2023/01/18 00:36:54;;;;;;;23.10;15.50;;;;;;;8.86;80.03;99329.71;107334;1266;72952;-69
2023/01/18 00:39:21;;;;;;;23.50;15.80;;;;;;;8.93;80.11;99330.26;107362;1267;72478;-69
2023/01/18 00:44:34;;;;;;;24.40;15.80;;;;;;;9.09;79.84;99328.51;107308;1267;60961;-69
2023/01/18 00:47:01;;;;;;;25.10;15.10;;;;;;;9.11;79.62;99328.27;107375;1265;59610;-69
2023/01/18 00:49:28;;;;;;;25.00;16.40;;;;;;;9.09;79.51;99328.98;107410;1265;73942;-69
2023/01/18 00:51:55;;;;;;;26.00;15.60;;;;;;;9.10;79.40;99325.23;107368;1266;73126;-69
2023/01/18 00:54:24;;;;;;;23.20;15.40;;;;;;;9.11;79.29;99330.35;108136;1254;74391;-69
2023/01/18 00:56:51;;;;;;;23.70;16.20;;;;;;;9.10;79.11;99329.09;108025;1256;63806;-69
2023/01/18 00:59:18;;;;;;;24.30;15.50;;;;;;;9.10;79.12;99328.92;107968;1254;60683;-68
2023/01/18 01:01:45;;;;;;;22.20;14.70;;;;;;;9.13;78.98;99329.22;108035;1253;74860;-68
2023/01/18 01:06:58;;;;;;;22.80;15.00;;;;;;;9.15;78.99;99330.33;107900;1254;72535;-68
2023/01/18 01:09:26;;;;;;;26.50;16.50;;;;;;;9.19;78.99;99327.20;108095;1254;63027;-68
2023/01/18 01:26:06;;;;;;;26.20;16.00;;;;;;;9.28;78.32;99308.06;108036;1260;60493;-69
2023/01/18 01:28:35;;;;;;;27.00;16.00;;;;;;;9.28;78.42;99314.66;107970;1254;72364;-69
2023/01/18 01:31:04;;;;;;;24.70;15.10;;;;;;;9.56;77.58;99315.45;108141;1256;75090;-67
2023/01/18 01:33:32;;;;;;;23.00;15.20;;;;;;;9.48;77.63;99310.23;108069;1254;74652;-69
2023/01/18 01:36:01;;;;;;;26.10;15.30;;;;;;;9.45;77.84;99306.06;108123;1256;61049;-67
2023/01/18 01:38:28;;;;;;;24.80;15.20;;;;;;;9.43;77.71;99305.86;107946;1254;61245;-68
2023/01/18 01:41:00;;;;;;;23.80;14.60;;;;;;;9.43;77.67;99315.45;107973;1254;74188;-69
2023/01/18 01:43:39;;;;;;;21.70;12.60;;;;;;;9.44;77.53;99315.39;108094;1254;73732;-69
2023/01/18 01:46:35;;;;;;;26.00;15.40;;;;;;;9.62;76.70;99307.08;107957;1254;74919;-69
2023/01/18 01:49:13;;;;;;;24.40;14.40;;;;;;;9.46;77.00;99300.84;107730;1254;63201;-69
2023/01/18 01:51:45;;;;;;;24.20;15.00;;;;;;;9.51;76.94;99300.58;108104;1254;61416;-69
2023/01/18 01:54:16;;;;;;;;;;;;;;;9.45;76.88;99300.14;108193;1254;73898;-67
2023/01/18 01:56:43;;;;;;;25.80;15.00;;;;;;;9.42;76.74;99286.85;108042;1254;72598;-69
2023/01/18 01:59:10;;;;;;;25.60;15.00;;;;;;;9.41;76.79;99284.20;107961;1254;72857;-70
2023/01/18 02:01:37;;;;;;;21.30;14.60;;;;;;;9.40;76.85;99278.60;108105;1254;60413;-69
2023/01/18 02:04:04;;;;;;;23.40;15.20;;;;;;;9.40;76.68;99284.84;107889;1255;60708;-72
2023/01/18 02:06:33;;;;;;;23.80;13.70;;;;;;;9.39;76.68;99274.71;108016;1254;71719;-70
2023/01/18 02:09:02;;;;;;;22.50;14.60;;;;;;;9.37;76.54;99283.38;108041;1254;72752;-71
2023/01/18 02:11:29;;;;;;;21.90;14.00;;;;;;;9.36;76.69;99283.54;108122;1254;73454;-71
2023/01/18 02:14:00;;;;;;;24.40;14.50;;;;;;;9.37;76.74;99280.64;108090;1257;60483;-69
2023/01/18 02:16:46;;;;;;;25.60;14.40;;;;;;;9.37;76.69;99285.08;107969;1254;59671;-68
2023/01/18 02:19:48;;;;;;;21.70;14.70;;;;;;;9.40;76.70;99284.46;107928;1253;73302;-68
2023/01/18 02:22:46;;;;;;;23.80;15.10;;;;;;;9.41;76.59;99281.69;107877;1255;71061;-68
2023/01/18 02:25:35;;;;;;;23.50;14.70;;;;;;;9.43;76.58;99284.91;107838;1256;73120;-68
2023/01/18 02:28:16;;;;;;;22.30;14.00;;;;;;;9.61;76.23;99273.39;107994;1255;62386;-68
2023/01/18 02:30:58;;;;;;;25.70;15.30;;;;;;;9.78;75.48;99267.84;108073;1254;61793;-68
2023/01/18 02:33:40;;;;;;;23.50;15.20;;;;;;;9.78;75.29;99266.41;108151;1254;73768;-69
2023/01/18 02:36:07;;;;;;;24.90;15.00;;;;;;;9.78;75.14;99261.92;108050;1254;74751;-70
2023/01/18 02:38:39;;;;;;;20.60;13.50;;;;;;;9.75;75.08;99265.09;107918;1254;72614;-68
2023/01/18 02:41:16;;;;;;;14.40;10.10;;;;;;;9.76;75.06;99258.09;107943;1254;60583;-67
2023/01/18 02:46:30;;;;;;;20.90;13.60;;;;;;;9.76;74.92;99256.13;107952;1254;73162;-67
2023/01/18 02:48:57;;;;;;;22.50;13.10;;;;;;;9.75;74.91;99258.38;107879;1254;73204;-67
2023/01/18 02:51:24;;;;;;;18.40;13.20;;;;;;;9.75;74.96;99258.70;108133;1256;73810;-67
2023/01/18 02:53:51;;;;;;;21.30;13.00;;;;;;;9.78;74.97;99257.17;107932;1256;61380;-67
2023/01/18 02:56:25;;;;;;;22.40;12.90;;;;;;;9.76;74.91;99251.05;107993;1254;60971;-68
2023/01/18 02:59:07;;;;;;;21.50;13.30;;;;;;;9.75;74.80;99250.16;108181;1253;75349;-68
2023/01/18 03:01:34;;;;;;;;;;;;;;;9.75;74.94;99251.34;108021;1254;72217;-68
2023/01/18 03:04:04;;;;;;;22.20;13.00;;;;;;;9.74;74.92;99248.04;107938;1254;72744;-68
2023/01/18 03:06:31;;;;;;;23.40;14.20;;;;;;;9.71;74.84;99239.27;107952;1256;62551;-68
2023/01/18 03:08:58;;;;;;;25.90;14.00;;;;;;;9.68;75.01;99233.06;108085;1254;62379;-69
2023/01/18 03:11:27;;;;;;;22.80;13.60;;;;;;;9.66;75.01;99229.41;108282;1254;73026;-69
2023/01/18 03:14:04;;;;;;;27.00;14.60;;;;;;;9.62;75.09;99234.73;108042;1254;73428;-68
2023/01/18 03:16:58;;;;;;;22.80;13.90;;;;;;;9.64;75.25;99234.34;108161;1254;73155;-69
2023/01/18 03:23:36;;;;;;;24.30;13.70;;;;;;;9.71;75.48;99232.41;108076;1254;60027;-70
2023/01/18 03:25:06;;;;;;;23.70;13.70;;;;;;;9.73;75.56;99233.29;107870;1258;75168;-68
2023/01/18 03:35:50;;;;;;;22.10;13.40;;;;;;;9.49;76.55;99236.62;107976;1254;60071;-67
2023/01/18 03:38:17;;;;;;;21.10;12.60;;;;;;;9.35;77.50;99240.75;108124;1256;71594;-68
2023/01/18 03:40:44;;;;;;;24.00;13.50;;;;;;;9.79;76.34;99240.52;107772;1256;71942;-67
2023/01/18 03:43:15;;;;;;;20.80;13.00;;;;;;;9.87;75.98;99238.61;108087;1256;74048;-68
2023/01/18 03:45:43;;;;;;;19.00;12.80;;;;;;;9.90;75.78;99240.50;107865;1254;62013;-69
2023/01/18 03:48:10;;;;;;;20.80;13.00;;;;;;;9.94;75.65;99231.29;107951;1254;61296;-67
2023/01/18 03:50:52;;;;;;;22.70;13.90;;;;;;;9.96;75.45;99231.20;107667;1254;73522;-67
2023/01/18 03:53:31;;;;;;;22.70;13.90;;;;;;;9.98;75.40;99232.68;107927;1254;72645;-68
2023/01/18 03:56:01;;;;;;;24.50;14.40;;;;;;;9.95;75.29;99227.05;107906;1254;72807;-68
2023/01/18 03:58:34;;;;;;;25.50;14.50;;;;;;;9.94;75.30;99224.48;107994;1254;63956;-68
2023/01/18 04:01:04;;;;;;;23.20;13.50;;;;;;;9.90;75.44;99219.79;107853;1254;59658;-68
2023/01/18 04:03:32;;;;;;;24.40;15.10;;;;;;;9.90;75.49;99215.27;108479;1254;73788;-69
2023/01/18 04:06:03;;;;;;;25.10;13.80;;;;;;;9.90;75.47;99214.37;108017;1254;71089;-68
2023/01/18 04:08:30;;;;;;;23.40;13.40;;;;;;;9.89;75.47;99218.00;108028;1256;73515;-69
2023/01/18 04:10:57;;;;;;;20.60;12.10;;;;;;;9.87;75.52;99219.95;107910;1254;64012;-69
2023/01/18 04:13:24;;;;;;;19.80;12.70;;;;;;;9.86;75.49;99226.89;108034;1254;59574;-69
2023/01/18 04:15:51;;;;;;;24.10;12.90;;;;;;;9.88;75.54;99226.77;107948;1254;72782;-69
2023/01/18 04:18:18;;;;;;;24.20;14.80;;;;;;;9.88;75.57;99227.19;107944;1254;71789;-69
2023/01/18 04:20:45;;;;;;;25.10;13.80;;;;;;;9.90;75.43;99230.25;107988;1254;72984;-69
2023/01/18 04:23:12;;;;;;;21.80;13.40;;;;;;;9.89;75.46;99229.63;107998;1254;60403;-69
2023/01/18 04:25:39;;;;;;;21.10;13.10;;;;;;;9.87;75.39;99229.91;107962;1254;60309;-68
2023/01/18 04:28:06;;;;;;;22.90;14.00;;;;;;;9.61;76.26;99231.66;108116;1254;74640;-69
2023/01/18 04:30:33;;;;;;;22.10;12.80;;;;;;;9.55;76.57;99232.88;107948;1254;74662;-69
2023/01/18 04:33:00;;;;;;;24.60;14.20;;;;;;;9.51;76.69;99236.17;108032;1256;71493;-69
2023/01/18 04:35:27;;;;;;;20.70;13.60;;;;;;;9.49;76.85;99240.94;108014;1256;60972;-69
2023/01/18 04:37:54;;;;;;;22.80;13.60;;;;;;;9.50;77.03;99246.36;107985;1254;60293;-69
2023/01/18 04:40:21;;;;;;;23.10;13.80;;;;;;;9.58;76.93;99242.23;108061;1254;75689;-68
2023/01/18 04:42:52;;;;;;;20.10;12.70;;;;;;;9.55;77.04;99240.79;107979;1254;74781;-68
2023/01/18 04:45:19;;;;;;;21.80;13.40;;;;;;;9.51;77.10;99242.46;107997;1256;73168;-68
2023/01/18 04:47:46;;;;;;;20.20;12.10;;;;;;;9.55;77.21;99240.13;107991;1256;61259;-69
2023/01/18 04:50:15;;;;;;;21.20;12.00;;;;;;;9.65;76.91;99237.69;108008;1254;60339;-69
2023/01/18 04:52:42;;;;;;;21.40;13.40;;;;;;;9.58;76.93;99243.63;108004;1254;74461;-69
2023/01/18 04:55:14;;;;;;;24.00;13.60;;;;;;;9.52;77.03;99246.98;108037;1254;73124;-70
2023/01/18 04:57:42;;;;;;;20.20;12.10;;;;;;;9.52;77.16;99239.99;108007;1254;72662;-68
2023/01/18 05:00:10;;;;;;;22.00;12.60;;;;;;;9.51;77.13;99233.82;107954;1254;61078;-69
2023/01/18 05:02:37;;;;;;;20.60;12.50;;;;;;;9.51;77.08;99229.41;108013;1254;60343;-69
2023/01/18 05:05:06;;;;;;;17.80;10.70;;;;;;;9.53;77.22;99220.42;108017;1254;73592;-68
2023/01/18 05:07:33;;;;;;;22.00;12.40;;;;;;;9.52;77.25;99211.22;108019;1254;72776;-68
2023/01/18 05:10:00;;;;;;;21.10;12.50;;;;;;;9.51;77.33;99201.73;108032;1254;72545;-68
2023/01/18 05:12:28;;;;;;;22.30;13.00;;;;;;;9.52;77.51;99204.12;108065;1254;61154;-69
2023/01/18 05:14:55;;;;;;;17.60;12.20;;;;;;;9.55;77.68;99206.34;108030;1254;59803;-69
2023/01/18 05:17:26;;;;;;;19.60;11.90;;;;;;;9.59;77.82;99206.07;108081;1254;72374;-70
2023/01/18 05:19:53;;;;;;;20.10;12.30;;;;;;;9.62;77.86;99206.14;107983;1254;74267;-69
2023/01/18 05:22:21;;;;;;;19.50;12.00;;;;;;;9.65;77.93;99203.03;107986;1254;73345;-69
2023/01/18 05:24:48;;;;;;;17.30;10.90;;;;;;;9.66;77.95;99193.05;107974;1254;62253;-68
2023/01/18 05:27:15;;;;;;;20.70;12.40;;;;;;;9.64;77.92;99194.14;107983;1254;60426;-68
2023/01/18 05:29:43;;;;;;;19.70;10.90;;;;;;;9.63;78.08;99200.42;108115;1254;75753;-68
2023/01/18 05:32:10;;;;;;;21.30;11.70;;;;;;;9.63;78.29;99201.81;108102;1254;71594;-69
2023/01/18 05:34:37;;;;;;;17.50;11.00;;;;;;;9.65;78.36;99195.30;107998;1254;74982;-69
2023/01/18 05:37:04;;;;;;;20.50;12.20;;;;;;;9.83;78.08;99196.58;107959;1256;63187;-68
2023/01/18 05:39:31;;;;;;;21.90;12.00;;;;;;;10.00;77.53;99192.96;108090;1254;60440;-68
2023/01/18 05:41:58;;;;;;;19.00;11.90;;;;;;;10.05;77.30;99189.75;107974;1254;76144;-69
2023/01/18 05:44:26;;;;;;;21.40;12.20;;;;;;;10.07;77.33;99192.72;107952;1254;72499;-68
2023/01/18 05:46:53;;;;;;;19.90;12.40;;;;;;;10.02;77.39;99184.55;108001;1254;74988;-69
2023/01/18 05:49:20;;;;;;;20.70;12.60;;;;;;;9.99;77.54;99177.60;108020;1256;62293;-68
2023/01/18 05:51:47;;;;;;;19.20;11.30;;;;;;;10.00;77.61;99168.96;107955;1256;60844;-70
2023/01/18 05:54:14;;;;;;;16.60;11.20;;;;;;;9.99;77.52;99163.85;107991;1256;72821;-68
2023/01/18 05:56:41;;;;;;;17.20;11.10;;;;;;;10.00;77.61;99156.72;108021;1254;73860;-68
2023/01/18 05:59:08;;;;;;;18.50;11.30;;;;;;;10.01;77.64;99152.95;108056;1258;74974;-69
2023/01/18 06:01:35;;;;;;;21.30;12.60;;;;;;;10.01;77.76;99146.76;108049;1256;60393;-69
2023/01/18 06:04:02;;;;;;;19.10;12.00;;;;;;;10.03;77.96;99145.17;107994;1254;60314;-69
2023/01/18 06:06:29;;;;;;;20.50;11.90;;;;;;;10.07;78.05;99141.64;107948;1254;74132;-68
2023/01/18 06:08:56;;;;;;;18.20;11.50;;;;;;;10.14;78.17;99141.88;107960;1254;75317;-69
2023/01/18 06:11:23;;;;;;;18.70;11.40;;;;;;;10.18;78.18;99135.05;108109;1256;72945;-70
2023/01/18 06:13:51;;;;;;;19.40;11.60;;;;;;;10.20;78.19;99130.63;107958;1256;64229;-70
2023/01/18 06:16:18;;;;;;;19.40;10.90;;;;;;;10.25;78.24;99132.39;107973;1260;61495;-69
2023/01/18 06:18:45;;;;;;;19.30;11.60;;;;;;;10.30;78.29;99134.43;107956;1254;74894;-69
2023/01/18 06:21:12;;;;;;;17.60;10.80;;;;;;;10.35;78.33;99132.30;107947;1254;70844;-69
2023/01/18 06:23:39;;;;;;;19.90;11.30;;;;;;;10.41;78.29;99122.19;107907;1254;72441;-68
2023/01/18 06:26:06;;;;;;;18.10;11.10;;;;;;;10.43;78.18;99124.40;107968;1256;63133;-68
2023/01/18 06:28:33;;;;;;;16.90;10.30;;;;;;;10.47;78.21;99130.42;107785;1261;62007;-67
2023/01/18 06:31:03;;;;;;;18.50;10.40;;;;;;;10.52;78.15;99131.89;108066;1254;72895;-68
2023/01/18 06:33:30;;;;;;;20.20;10.20;;;;;;;10.56;78.17;99128.36;108080;1254;73307;-69
2023/01/18 06:35:57;;;;;;;17.20;10.40;;;;;;;10.61;78.11;99122.09;108058;1255;72552;-69
2023/01/18 06:38:24;;;;;;;17.50;9.70;;;;;;;10.67;78.03;99123.52;108051;1254;60427;-69
2023/01/18 06:40:51;;;;;;;16.20;9.60;;;;;;;10.69;77.98;99120.79;108028;1254;60434;-69
2023/01/18 06:43:18;;;;;;;15.60;10.00;;;;;;;10.71;78.06;99124.33;108058;1254;73846;-69
2023/01/18 06:45:51;;;;;;;15.50;9.70;;;;;;;10.76;78.11;99125.35;107969;1254;74500;-69
2023/01/18 06:48:18;;;;;;;18.70;9.20;;;;;;;10.80;78.00;99123.91;107943;1255;71890;-69
2023/01/18 06:50:45;;;;;;;13.30;8.50;;;;;;;10.82;77.92;99124.89;107963;1256;64002;-69
2023/01/18 06:53:12;;;;;;;17.90;9.60;;;;;;;10.86;77.81;99127.71;107936;1257;60301;-68
2023/01/18 06:55:39;;;;;;;14.90;8.60;;;;;;;10.89;77.85;99126.21;107956;1254;73970;-68
2023/01/18 06:58:07;;;;;;;15.80;8.80;;;;;;;10.92;77.83;99121.98;108024;1254;75067;-69
2023/01/18 07:00:34;;;;;;;17.00;9.40;;;;;;;10.95;77.69;99119.33;107954;1254;73453;-69
2023/01/18 07:03:01;;;;;;;14.50;8.80;;;;;;;10.99;77.59;99117.58;108063;1255;60655;-69
2023/01/18 07:05:28;;;;;;;14.80;8.30;;;;;;;11.02;77.52;99115.23;107960;1259;60095;-69
2023/01/18 07:07:56;;;;;;;14.40;8.20;;;;;;;11.05;77.49;99108.84;107985;1254;74344;-70
2023/01/18 07:10:23;;;;;;;18.10;8.50;;;;;;;11.08;77.38;99110.34;107945;1254;74587;-68
2023/01/18 07:12:50;;;;;;;18.10;9.20;;;;;;;11.09;77.43;99111.21;107976;1256;71708;-69
2023/01/18 07:15:16;;;;;;;16.70;8.60;;;;;;;11.11;77.29;99109.31;107989;1260;60903;-69
2023/01/18 07:17:49;;;;;;;18.50;9.20;;;;;;;11.13;77.44;99112.74;107979;1260;62019;-69
2023/01/18 07:20:17;;;;;;;19.90;9.00;;;;;;;11.18;77.36;99119.02;108047;1254;72330;-70
2023/01/18 07:22:44;;;;;;;18.10;9.10;;;;;;;11.22;77.37;99119.70;108007;1254;73488;-69
2023/01/18 07:25:17;;;;;;;20.10;9.00;;;;;;;11.27;77.21;99125.73;108047;1254;73194;-68
2023/01/18 07:27:45;;;;;;;17.90;9.10;;;;;;;11.35;76.93;99120.26;107951;1256;63423;-68
2023/01/18 07:30:12;;;;;;;15.80;8.80;;;;;;;11.34;76.92;99118.66;107997;1254;60359;-68
2023/01/18 07:32:43;;;;;;;16.80;9.40;;;;;;;11.38;76.86;99114.41;108139;1254;75319;-70
2023/01/18 07:35:10;;;;;;;16.90;9.10;;;;;;;11.40;76.73;99108.55;108040;1256;71782;-69
2023/01/18 07:37:37;;;;;;;17.70;9.10;;;;;;;11.40;76.79;99099.94;108003;1256;71372;-69
2023/01/18 07:53:05;;;;;;;15.40;8.60;;;;;;;11.36;77.78;99091.95;105830;1285;613499;-69
2023/01/18 07:55:33;;;;;;;17.00;8.70;;;;;;;11.73;76.83;99087.76;107362;1264;147712;-67
2023/01/18 07:58:01;;;;;;;23.10;9.90;;;;;;;11.70;76.73;99083.64;107563;1264;61210;-67
2023/01/18 08:00:28;;;;;;;20.70;9.70;;;;;;;11.68;76.80;99088.19;107414;1264;73011;-66
2023/01/18 08:02:55;;;;;;;16.50;8.70;;;;;;;11.68;76.74;99091.33;107415;1264;73329;-66
2023/01/18 08:05:26;;;;;;;18.70;9.80;;;;;;;11.69;76.79;99097.00;107466;1264;75083;-67
2023/01/18 08:07:53;;;;;;;15.60;8.80;;;;;;;11.67;76.79;99099.65;107390;1267;63922;-67
2023/01/18 08:10:21;;;;;;;15.80;9.30;;;;;;;11.64;76.73;99102.93;107485;1264;60910;-67
2023/01/18 08:12:49;;;;;;;19.20;9.70;;;;;;;11.61;76.84;99104.77;107416;1264;74269;-67
2023/01/18 08:15:17;;;;;;;19.60;10.00;;;;;;;11.59;76.80;99095.99;107489;1264;74929;-67
2023/01/18 08:17:44;;;;;;;18.20;8.80;;;;;;;11.59;76.95;99096.20;107471;1264;74882;-67
2023/01/18 08:20:11;;;;;;;17.90;8.90;;;;;;;11.65;76.86;99095.42;107421;1264;63948;-65
2023/01/18 08:22:38;;;;;;;17.00;9.70;;;;;;;11.69;76.72;99089.46;107410;1264;60203;-66
2023/01/18 08:25:06;;;;;;;15.50;9.40;;;;;;;11.70;76.74;99087.60;107455;1264;71851;-66
2023/01/18 08:27:33;;;;;;;20.10;10.40;;;;;;;11.70;76.59;99087.35;107482;1264;73263;-67
2023/01/18 08:30:00;;;;;;;21.40;10.60;;;;;;;11.73;76.68;99090.11;107375;1267;74732;-67
2023/01/18 08:32:27;;;;;;;19.10;10.30;;;;;;;11.77;76.63;99079.86;107361;1264;63106;-69
2023/01/18 08:34:55;;;;;;;17.50;9.70;;;;;;;11.82;76.56;99076.91;107450;1264;60440;-68
2023/01/18 08:37:22;;;;;;;19.90;10.60;;;;;;;11.80;76.70;99074.20;107588;1260;72044;-68
2023/01/18 08:39:49;;;;;;;18.60;10.10;;;;;;;11.81;76.70;99079.30;107635;1260;72518;-67
2023/01/18 08:42:16;;;;;;;21.00;10.40;;;;;;;11.85;76.79;99071.53;107527;1264;74855;-67
2023/01/18 08:44:43;;;;;;;19.90;10.00;;;;;;;11.90;76.70;99070.25;107547;1263;64035;-67
2023/01/18 08:47:10;;;;;;;20.30;10.40;;;;;;;11.95;76.53;99066.11;107513;1267;59976;-68
2023/01/18 08:49:37;;;;;;;15.20;9.30;;;;;;;12.01;76.42;99057.84;107496;1263;74880;-67
2023/01/18 08:52:05;;;;;;;21.20;11.10;;;;;;;12.05;76.19;99051.02;107498;1264;73618;-68
2023/01/18 08:54:32;;;;;;;18.00;10.50;;;;;;;12.08;76.08;99056.45;107511;1264;73056;-67
2023/01/18 08:57:01;;;;;;;18.80;10.40;;;;;;;12.11;75.85;99047.29;107477;1264;61372;-68
2023/01/18 08:59:28;;;;;;;22.50;10.40;;;;;;;12.13;75.83;99046.38;107552;1264;59644;-67
2023/01/18 09:01:56;;;;;;;20.80;11.00;;;;;;;12.16;75.72;99043.33;107528;1263;71567;-67
2023/01/18 09:04:23;;;;;;;18.30;10.10;;;;;;;12.19;75.62;99044.80;107515;1264;74657;-67
2023/01/18 09:06:50;;;;;;;18.40;10.10;;;;;;;12.23;75.52;99051.15;107423;1263;74538;-68
2023/01/18 09:09:17;;;;;;;17.50;9.40;;;;;;;12.25;75.29;99050.89;107493;1262;64328;-70
2023/01/18 09:11:45;;;;;;;23.70;11.00;;;;;;;12.25;75.36;99050.60;107478;1263;60203;-68
2023/01/18 09:14:11;;;;;;;22.40;11.10;;;;;;;12.29;75.19;99052.60;107542;1263;73840;-68
2023/01/18 09:16:39;;;;;;;20.70;10.60;;;;;;;12.30;75.02;99046.15;107491;1263;71417;-66
2023/01/18 09:19:06;;;;;;;19.80;10.00;;;;;;;12.30;74.79;99034.26;107489;1263;74548;-67
2023/01/18 09:21:33;;;;;;;21.80;10.20;;;;;;;12.30;74.67;99038.85;107467;1263;64183;-66
2023/01/18 09:24:00;;;;;;;19.00;9.90;;;;;;;12.32;74.53;99032.38;107526;1263;62667;-66
2023/01/18 09:26:29;;;;;;;17.70;9.40;;;;;;;12.34;74.48;99028.58;107495;1263;74025;-67
2023/01/18 09:28:56;;;;;;;17.10;9.20;;;;;;;12.38;74.33;99031.38;107468;1264;72104;-67
2023/01/18 09:31:24;;;;;;;19.20;9.30;;;;;;;12.41;74.09;99027.90;107479;1264;72731;-67
2023/01/18 09:33:54;;;;;;;16.60;9.10;;;;;;;12.31;74.12;99026.52;108022;1254;61724;-69
2023/01/18 09:36:26;;;;;;;21.50;9.90;;;;;;;12.28;74.12;99030.98;108125;1257;59643;-68
2023/01/18 09:38:54;;;;;;;18.30;9.40;;;;;;;12.28;74.15;99030.19;108043;1255;73497;-68
2023/01/18 09:41:31;;;;;;;19.00;10.00;;;;;;;12.29;74.17;99030.27;108112;1254;73630;-67
2023/01/18 09:44:15;;;;;;;21.00;9.90;;;;;;;12.31;74.12;99028.25;108156;1254;73536;-69
2023/01/18 09:46:42;;;;;;;20.10;9.80;;;;;;;12.33;73.99;99032.57;108073;1256;60483;-66
2023/01/18 09:49:36;;;;;;;17.70;9.20;;;;;;;12.34;73.89;99032.01;108100;1254;60262;-65
2023/01/18 09:52:31;;;;;;;21.00;9.60;;;;;;;12.45;73.60;99030.41;108082;1254;74075;-68
2023/01/18 09:55:14;;;;;;;18.40;9.60;;;;;;;12.45;73.19;99031.10;108055;1254;72257;-66
2023/01/18 09:57:47;;;;;;;20.80;10.50;;;;;;;12.42;73.14;99024.09;108062;1257;74724;-66
2023/01/18 10:00:29;;;;;;;19.10;9.20;;;;;;;12.40;73.08;99023.36;108138;1257;62593;-67
2023/01/18 10:03:01;;;;;;;;;;;;;;;12.40;72.99;99019.29;108194;1254;62537;-67
2023/01/18 10:05:32;;;;;;;16.90;8.90;;;;;;;12.40;72.90;99014.58;108201;1254;73881;-66
2023/01/18 10:08:20;;;;;;;22.00;8.90;;;;;;;12.42;72.91;99014.89;108186;1254;72231;-66
2023/01/18 10:10:56;;;;;;;18.30;8.50;;;;;;;12.45;72.85;99008.83;108088;1256;73383;-66
2023/01/18 10:13:45;;;;;;;19.30;9.70;;;;;;;12.49;72.84;99000.81;108098;1257;63925;-65
2023/01/18 10:16:15;;;;;;;23.10;8.70;;;;;;;12.52;72.74;98995.55;108032;1255;61862;-66
2023/01/18 10:18:47;;;;;;;18.70;8.90;;;;;;;12.52;72.63;98996.16;108045;1254;74257;-66
2023/01/18 10:21:28;;;;;;;22.70;9.20;;;;;;;12.54;72.59;99001.00;107893;1260;71247;-66
2023/01/18 10:24:32;;;;;;;14.50;8.20;;;;;;;12.57;72.44;99002.52;108060;1254;72973;-69
2023/01/18 10:27:26;;;;;;;18.40;8.50;;;;;;;12.59;72.34;99000.42;108016;1254;60898;-67
2023/01/18 10:30:19;;;;;;;19.00;8.70;;;;;;;12.63;72.26;98999.14;108125;1254;61451;-66
2023/01/18 10:32:52;;;;;;;16.30;7.90;;;;;;;12.67;72.21;98991.45;108042;1254;73858;-67
2023/01/18 10:35:30;;;;;;;17.00;7.80;;;;;;;12.74;72.10;98986.27;108221;1254;71563;-67
2023/01/18 10:38:00;;;;;;;21.30;8.30;;;;;;;12.79;71.95;98984.71;108075;1258;73973;-66
2023/01/18 10:40:27;;;;;;;19.90;8.20;;;;;;;12.85;71.92;98986.29;108119;1256;62111;-67
2023/01/18 10:43:00;;;;;;;19.50;8.10;;;;;;;12.90;71.73;98986.73;108102;1254;61135;-66
2023/01/18 10:45:29;;;;;;;21.40;8.10;;;;;;;12.94;71.40;98984.61;107966;1254;74201;-66
2023/01/18 10:47:58;;;;;;;13.60;6.90;;;;;;;12.98;71.24;98982.77;108093;1254;75066;-67
2023/01/18 10:50:35;;;;;;;18.20;8.00;;;;;;;13.02;71.28;98974.45;108083;1254;71061;-66
2023/01/18 10:53:22;;;;;;;19.10;7.10;;;;;;;13.07;70.90;98969.16;108133;1254;62051;-67
2023/01/18 10:56:11;;;;;;;16.50;6.90;;;;;;;13.09;70.70;98968.13;108105;1254;62427;-67
2023/01/18 10:58:38;;;;;;;18.80;7.30;;;;;;;13.10;70.48;98964.70;108006;1254;74415;-68
2023/01/18 11:01:05;;;;;;;14.90;6.70;;;;;;;13.11;70.51;98959.09;108136;1254;75011;-66
2023/01/18 11:03:38;;;;;;;18.60;7.10;;;;;;;13.12;70.38;98957.02;108073;1257;75019;-67
2023/01/18 11:06:05;;;;;;;17.20;6.60;;;;;;;13.14;70.40;98950.61;108068;1254;61181;-66
2023/01/18 11:08:34;;;;;;;21.00;7.50;;;;;;;13.15;70.14;98949.15;107912;1254;61405;-66
2023/01/18 11:11:06;;;;;;;14.60;6.80;;;;;;;13.16;70.20;98947.92;108027;1254;75293;-67
2023/01/18 11:13:43;;;;;;;16.90;6.90;;;;;;;13.20;70.12;98952.66;108145;1256;72716;-67
2023/01/18 11:16:20;;;;;;;14.70;6.90;;;;;;;13.25;70.12;98947.11;108018;1254;73400;-66
2023/01/18 11:19:01;;;;;;;17.70;7.00;;;;;;;13.32;70.07;98943.62;108092;1257;62887;-66
2023/01/18 11:21:39;;;;;;;18.20;6.00;;;;;;;13.39;69.78;98953.73;108112;1254;60853;-67
2023/01/18 11:24:10;;;;;;;18.50;6.10;;;;;;;13.44;69.61;98953.79;107961;1254;71781;-67
2023/01/18 11:26:52;;;;;;;17.60;6.40;;;;;;;13.47;69.34;98958.25;108074;1257;74736;-66
2023/01/18 11:29:19;;;;;;;18.00;6.50;;;;;;;13.51;69.04;98960.39;108100;1254;73711;-66
2023/01/18 11:31:47;;;;;;;14.60;6.00;;;;;;;13.53;68.77;98962.55;108108;1254;64095;-67
2023/01/18 11:34:45;;;;;;;17.30;6.80;;;;;;;13.51;68.42;98965.31;108004;1255;61260;-67
2023/01/18 11:37:33;;;;;;;17.10;6.30;;;;;;;13.49;68.21;98969.80;108077;1254;73440;-67
2023/01/18 11:40:25;;;;;;;18.20;6.70;;;;;;;13.45;68.11;98973.45;107960;1257;74089;-65
2023/01/18 11:43:02;;;;;;;13.90;6.10;;;;;;;13.41;67.94;98976.14;108113;1257;74351;-67
2023/01/18 11:46:00;;;;;;;14.80;5.50;;;;;;;13.36;67.83;98973.44;107963;1255;61039;-66
2023/01/18 11:48:50;;;;;;;16.50;6.10;;;;;;;13.30;67.82;98972.80;107985;1255;60777;-66
2023/01/18 11:51:27;;;;;;;14.20;5.80;;;;;;;13.26;67.73;98976.52;108034;1256;74970;-66
2023/01/18 11:54:21;;;;;;;14.50;5.70;;;;;;;13.25;67.70;98979.89;108021;1256;74958;-66
2023/01/18 11:56:50;;;;;;;15.00;5.90;;;;;;;13.22;67.75;98980.20;107965;1257;71730;-66
2023/01/18 11:59:29;;;;;;;17.10;6.00;;;;;;;13.20;67.77;98978.50;107927;1255;61803;-65
2023/01/18 12:02:22;;;;;;;16.00;6.70;;;;;;;13.17;67.82;98976.13;107978;1257;60989;-68
2023/01/18 12:04:53;;;;;;;16.60;6.80;;;;;;;13.15;67.90;98978.58;108071;1255;73311;-66
2023/01/18 12:07:44;;;;;;;17.10;6.50;;;;;;;13.11;67.75;98979.65;108168;1257;74790;-66
2023/01/18 12:10:22;;;;;;;13.00;6.60;;;;;;;13.10;67.78;98976.52;108097;1256;71843;-67
2023/01/18 12:13:44;;;;;;;15.10;5.80;;;;;;;13.09;67.84;98973.39;108110;1254;62555;-66
2023/01/18 12:16:21;;;;;;;15.80;6.50;;;;;;;13.06;67.77;98983.39;107553;1263;60323;-66
2023/01/18 12:18:56;;;;;;;15.80;6.80;;;;;;;13.05;67.79;98988.92;107976;1254;72865;-66
2023/01/18 12:21:35;;;;;;;12.30;5.90;;;;;;;13.06;67.77;98987.80;108083;1254;71298;-66
2023/01/18 12:24:08;;;;;;;21.40;7.30;;;;;;;13.05;67.78;98982.17;108083;1254;73120;-67
2023/01/18 12:26:53;;;;;;;15.20;6.60;;;;;;;13.05;67.72;98984.02;108037;1254;64515;-66